KOGB/OGB METAR and TAF weather

Enter ICAO airport designator
Station Type Date Time Source
KOGB METAR 2020/07/10 11:53 UTC NOAA

KOGB 101153Z AUTO 31003KT 10SM CLR 25/23 A2993 RMK AO2 SLP133 T02500233 10250 20228 51017


Station Type Date Time Source
KOGB Decoded METAR 2020/07/10 11:53 UTC NOAA

ORANGEBURG MUNICIPAL AIRPORT, SC, United States (KOGB) 33-28N 080-51W 59M
Jul 10, 2020 - 07:53 AM EDT / 2020.07.10 1153 UTC
Wind: from the NW (310 degrees) at 3 MPH (3 KT):0
Visibility: 10 mile(s):0
Sky conditions: clear
Temperature: 77.0 F (25.0 C)
Dew Point: 73.9 F (23.3 C)
Relative Humidity: 90%
Pressure (altimeter): 29.93 in. Hg (1013 hPa)
Pressure tendency: 0.05 inches (1.7 hPa) higher than three hours ago
ob: KOGB 101153Z AUTO 31003KT 10SM CLR 25/23 A2993 RMK AO2 SLP133 T02500233 10250 20228 51017
cycle: 12

Station Type Date Time Source
KOGB TAF 2020/07/10 15:42 UTC NOAA

TAF
AMD KOGB 101440Z 1015/1112 29006KT P6SM SCT050 SCT250
FM110000 VRB02KT P6SM SCT250

Example: see airport list